This is the latest recevied weather packets stored in our database for station/object DB2AG-13. If no packets are shown the sender has not sent any weather packets the latest 10 day(s).
| Time | Temp. | Humidity | Pressure | Rain* | Wind** | Luminosity | Snow |
|---|---|---|---|---|---|---|---|
| 1787569069 | 22.78° C | 39% | 1025.1 hPa | - | - | - | - |
| 1787568525 | 22.78° C | 39% | 1025.1 hPa | - | - | - | - |
| 1787567984 | 23.33° C | 39% | 1025.1 hPa | - | - | - | - |
| 1787566265 | 21.11° C | 46% | 1025.3 hPa | - | - | - | - |
| 1787565723 | 20° C | 50% | 1025.3 hPa | - | - | - | - |
| 1787564645 | 18.89° C | 49% | 1025.4 hPa | - | - | - | - |
| 1787564100 | 18.33° C | 50% | 1025.4 hPa | - | - | - | - |
| 1787563556 | 18.33° C | 51% | 1025.5 hPa | - | - | - | - |
| 1787563013 | 17.78° C | 51% | 1025.5 hPa | - | - | - | - |
| 1787562475 | 17.78° C | 51% | 1025.5 hPa | - | - | - | - |
| 1787561929 | 18.33° C | 50% | 1025.6 hPa | - | - | - | - |
| 1787561387 | 18.89° C | 50% | 1025.6 hPa | - | - | - | - |
| 1787560854 | 18.89° C | 49% | 1025.5 hPa | - | - | - | - |
| 1787560320 | 19.44° C | 50% | 1025.5 hPa | - | - | - | - |
| 1787559779 | 19.44° C | 52% | 1025.6 hPa | - | - | - | - |
| 1787559240 | 18.89° C | 54% | 1025.6 hPa | - | - | - | - |
| 1787558700 | 18.89° C | 56% | 1025.6 hPa | - | - | - | - |
| 1787558160 | 18.89° C | 56% | 1025.5 hPa | - | - | - | - |
| 1787557623 | 18.33° C | 58% | 1025.5 hPa | - | - | - | - |
| 1787557079 | 17.78° C | 59% | 1025.5 hPa | - | - | - | - |
| 1787556534 | 17.22° C | 60% | 1025.5 hPa | - | - | - | - |
| 1787555992 | 16.67° C | 62% | 1025.5 hPa | - | - | - | - |
| 1787555448 | 16.11° C | 63% | 1025.5 hPa | - | - | - | - |
| 1787554909 | 15.56° C | 64% | 1025.4 hPa | - | - | - | - |
| 1787554364 | 15.56° C | 65% | 1025.6 hPa | - | - | - | - |
* Rain since midnight (hover to see other rain measurements)
** Current wind speed in m/s (hover to see current wind gust speed)